Time;durP1;ratioP1;P1;durP2;ratioP2;P2;SDS_P1;SDS_P2;PMS_P1;PMS_P2;Temp;Humidity;BMP_temperature;BMP_pressure;BME280_temperature;BME280_humidity;BME280_pressure;Samples;Min_cycle;Max_cycle;Signal;HPM_P1;HPM_P2
2022/09/06 00:00:06;;;;;;;8.70;5.00;;;20.10;99.90;;;;;;4923051;28;20445;-86
2022/09/06 00:02:34;;;;;;;6.67;5.60;;;19.70;99.90;;;;;;4934807;28;20470;-86
2022/09/06 00:05:00;;;;;;;11.77;4.60;;;19.30;99.90;;;;;;4922786;28;20537;-86
2022/09/06 00:07:25;;;;;;;5.90;4.67;;;19.00;99.90;;;;;;4934164;28;20462;-85
2022/09/06 00:09:51;;;;;;;12.63;4.90;;;;;;;;;;4922629;28;20186;-86
2022/09/06 00:12:17;;;;;;;7.27;4.27;;;18.90;99.90;;;;;;4917099;28;20219;-87
2022/09/06 00:14:42;;;;;;;8.80;5.20;;;18.90;99.90;;;;;;4943604;28;20451;-87
2022/09/06 00:17:08;;;;;;;4.97;4.40;;;18.80;99.90;;;;;;4930449;28;20699;-86
2022/09/06 00:19:33;;;;;;;4.80;4.40;;;18.50;99.90;;;;;;4928673;28;20203;-86
2022/09/06 00:21:59;;;;;;;8.90;4.60;;;18.30;99.90;;;;;;4917995;28;21122;-84
2022/09/06 00:24:24;;;;;;;6.80;4.30;;;18.10;99.90;;;;;;4920525;28;20306;-85
2022/09/06 00:26:50;;;;;;;5.53;3.93;;;18.30;99.90;;;;;;4938499;28;20226;-86
2022/09/06 00:29:16;;;;;;;6.60;4.40;;;;;;;;;;4938847;28;20211;-86
2022/09/06 00:31:42;;;;;;;6.13;4.80;;;18.40;99.90;;;;;;4920293;28;20183;-86
2022/09/06 00:34:08;;;;;;;6.63;4.10;;;17.80;99.90;;;;;;4937129;28;20558;-86
2022/09/06 00:36:33;;;;;;;8.80;5.00;;;18.40;99.90;;;;;;4934784;28;20515;-86
2022/09/06 00:38:59;;;;;;;6.40;4.03;;;18.50;99.90;;;;;;4925474;28;21858;-85
2022/09/06 00:41:25;;;;;;;7.80;3.80;;;18.70;99.90;;;;;;4947264;28;20221;-86
2022/09/06 00:43:50;;;;;;;5.50;3.67;;;18.90;99.90;;;;;;4941752;28;21288;-87
2022/09/06 00:46:19;;;;;;;6.93;4.10;;;19.10;99.90;;;;;;4939857;28;20541;-85
2022/09/06 00:48:49;;;;;;;5.47;4.00;;;19.20;99.90;;;;;;4921025;28;20255;-85
2022/09/06 00:51:16;;;;;;;10.10;4.27;;;19.40;99.90;;;;;;4919758;28;20448;-87
2022/09/06 00:53:41;;;;;;;5.90;3.97;;;19.40;99.90;;;;;;4922139;28;22683;-85
2022/09/06 00:56:08;;;;;;;6.60;3.77;;;;;;;;;;4917626;28;20457;-87
2022/09/06 00:58:34;;;;;;;4.60;3.90;;;19.50;99.90;;;;;;4933433;28;20518;-84
2022/09/06 01:01:00;;;;;;;8.00;4.60;;;19.40;99.90;;;;;;4935434;28;20462;-85
2022/09/06 01:03:26;;;;;;;6.37;5.40;;;19.30;99.90;;;;;;4938738;28;20507;-88
2022/09/06 01:06:21;;;;;;;5.27;4.77;;;19.20;99.90;;;;;;4934823;28;20470;-85
2022/09/06 01:08:58;;;;;;;10.27;5.47;;;18.90;99.90;;;;;;4932195;28;20462;-86
2022/09/06 01:12:17;;;;;;;8.23;5.20;;;18.60;99.90;;;;;;4919939;28;20435;-85
2022/09/06 01:14:53;;;;;;;10.70;6.07;;;18.30;99.90;;;;;;4846564;29;21262;-87
2022/09/06 01:17:36;;;;;;;6.47;4.63;;;18.30;99.90;;;;;;4923758;28;20474;-87
2022/09/06 01:20:30;;;;;;;7.67;4.33;;;18.30;99.90;;;;;;4940698;28;20455;-87
2022/09/06 01:23:13;;;;;;;9.77;4.30;;;18.50;99.90;;;;;;4925361;28;20463;-88
2022/09/06 01:26:02;;;;;;;4.90;3.83;;;19.10;99.90;;;;;;4938335;28;20454;-88
2022/09/06 01:28:38;;;;;;;10.97;4.17;;;19.70;99.90;;;;;;4937895;28;20436;-86
2022/09/06 01:31:38;;;;;;;4.97;3.50;;;19.90;99.90;;;;;;4924159;28;20551;-87
2022/09/06 01:34:07;;;;;;;12.77;4.60;;;20.00;99.90;;;;;;4910358;28;20444;-87
2022/09/06 01:37:00;;;;;;;4.37;3.67;;;20.10;99.90;;;;;;4919453;28;22047;-86
2022/09/06 01:39:31;;;;;;;4.60;4.00;;;20.10;99.90;;;;;;4914285;28;20458;-85
2022/09/06 01:42:03;;;;;;;6.40;4.20;;;20.00;99.90;;;;;;4920416;28;20463;-85
2022/09/06 01:44:29;;;;;;;5.30;4.20;;;20.00;99.90;;;;;;4921600;28;20443;-85
2022/09/06 01:47:06;;;;;;;4.53;3.93;;;19.90;99.90;;;;;;4929813;28;21250;-85
2022/09/06 01:49:40;;;;;;;5.10;3.33;;;20.20;99.90;;;;;;4920421;28;20443;-87
2022/09/06 01:52:32;;;;;;;5.50;3.87;;;20.40;99.90;;;;;;4938493;28;21179;-87
2022/09/06 01:55:13;;;;;;;6.47;4.80;;;20.40;99.90;;;;;;4937776;28;20681;-85
2022/09/06 01:58:01;;;;;;;8.40;5.40;;;19.90;99.90;;;;;;4949462;28;21133;-87
2022/09/06 02:00:26;;;;;;;7.40;4.80;;;18.70;99.90;;;;;;4941417;28;20443;-86
2022/09/06 02:03:21;;;;;;;6.40;4.50;;;18.00;99.90;;;;;;4941025;28;20477;-87
2022/09/06 02:06:31;;;;;;;4.33;3.63;;;18.10;99.90;;;;;;4942018;28;20188;-86
2022/09/06 02:09:10;;;;;;;5.47;4.30;;;18.30;99.90;;;;;;4880780;29;20452;-86
2022/09/06 02:11:42;;;;;;;4.97;4.23;;;19.20;99.90;;;;;;4885058;29;20458;-84
2022/09/06 02:14:13;;;;;;;8.40;4.03;;;20.10;99.90;;;;;;4905644;28;20469;-86
2022/09/06 02:16:42;;;;;;;9.30;4.10;;;20.40;99.90;;;;;;4943595;28;20450;-85
2022/09/06 02:19:16;;;;;;;6.67;4.17;;;20.40;99.90;;;;;;4929286;28;20450;-85
2022/09/06 02:21:46;;;;;;;8.67;4.20;;;20.40;99.90;;;;;;4949263;28;21646;-85
2022/09/06 02:24:21;;;;;;;6.73;4.10;;;20.40;99.90;;;;;;4926872;28;20438;-86
2022/09/06 02:26:47;;;;;;;8.50;4.30;;;;;;;;;;4921368;28;20462;-86
2022/09/06 02:29:13;;;;;;;5.63;4.13;;;;;;;;;;4924105;28;20441;-85
2022/09/06 02:32:13;;;;;;;6.27;4.23;;;19.90;99.90;;;;;;4923262;28;20555;-87
2022/09/06 02:34:39;;;;;;;7.43;4.77;;;19.50;99.90;;;;;;4909359;28;20526;-85
2022/09/06 02:37:06;;;;;;;7.27;4.60;;;19.70;99.90;;;;;;4925211;28;20440;-85
2022/09/06 02:39:31;;;;;;;6.57;3.50;;;19.50;99.90;;;;;;4939741;28;20562;-87
2022/09/06 02:41:58;;;;;;;8.90;4.57;;;19.30;99.90;;;;;;4940743;28;20833;-87
2022/09/06 02:44:24;;;;;;;11.57;3.83;;;;;;;;;;4938126;28;20209;-87
2022/09/06 02:46:50;;;;;;;11.53;4.23;;;;;;;;;;4923686;28;20475;-88
2022/09/06 02:49:15;;;;;;;13.80;4.57;;;18.60;99.90;;;;;;4939962;28;20450;-85
2022/09/06 02:51:41;;;;;;;8.40;4.67;;;18.50;99.90;;;;;;4920863;28;20451;-86
2022/09/06 02:54:07;;;;;;;6.93;4.20;;;18.10;99.90;;;;;;4938964;28;20197;-86
2022/09/06 02:56:33;;;;;;;5.13;4.30;;;17.90;99.90;;;;;;4947522;28;20282;-86
2022/09/06 02:58:59;;;;;;;5.80;3.97;;;17.80;99.90;;;;;;4937471;28;20486;-86
2022/09/06 03:01:25;;;;;;;6.93;4.50;;;17.70;99.90;;;;;;4915940;28;20510;-86
2022/09/06 03:03:50;;;;;;;6.80;4.30;;;17.60;99.90;;;;;;4940193;28;21042;-87
2022/09/06 03:06:16;;;;;;;10.20;5.13;;;18.60;99.90;;;;;;4924806;28;21950;-86
2022/09/06 03:08:42;;;;;;;7.73;5.33;;;17.20;99.90;;;;;;4937075;28;20187;-85
2022/09/06 03:11:08;;;;;;;7.07;5.50;;;;;;;;;;4916497;28;20254;-86
2022/09/06 03:13:33;;;;;;;13.23;7.50;;;17.40;99.90;;;;;;4920388;28;20316;-86
2022/09/06 03:15:59;;;;;;;7.90;5.60;;;17.50;99.90;;;;;;4937923;28;20899;-89
2022/09/06 03:18:28;;;;;;;10.10;5.83;;;17.40;99.90;;;;;;4916208;28;20183;-86
2022/09/06 03:20:55;;;;;;;8.27;4.60;;;17.40;99.90;;;;;;4918439;28;20513;-89
2022/09/06 03:23:23;;;;;;;7.03;4.07;;;17.30;99.90;;;;;;4945902;28;20459;-87
2022/09/06 03:25:49;;;;;;;8.40;4.53;;;17.30;99.90;;;;;;4929618;28;20466;-87
2022/09/06 03:28:16;;;;;;;5.80;5.00;;;17.20;99.90;;;;;;4950004;28;20438;-87
2022/09/06 03:30:44;;;;;;;10.70;6.60;;;17.20;99.90;;;;;;4950984;28;20463;-86
2022/09/06 03:33:10;;;;;;;8.43;4.53;;;17.20;99.90;;;;;;4945656;28;21504;-87
2022/09/06 03:35:35;;;;;;;5.93;5.33;;;;;;;;;;4928577;28;20447;-86
2022/09/06 03:38:01;;;;;;;7.97;5.57;;;17.40;99.90;;;;;;4944877;28;20198;-87
2022/09/06 03:40:27;;;;;;;8.93;5.67;;;;;;;;;;4950626;28;20444;-86
2022/09/06 03:42:53;;;;;;;6.43;5.20;;;17.50;99.90;;;;;;4934190;28;21992;-85
2022/09/06 03:45:18;;;;;;;6.77;4.77;;;17.50;99.90;;;;;;4943035;28;20439;-87
2022/09/06 03:47:44;;;;;;;9.20;5.13;;;17.40;99.90;;;;;;4928653;28;20207;-87
2022/09/06 03:50:10;;;;;;;9.07;5.10;;;17.30;99.90;;;;;;4927535;28;20514;-87
2022/09/06 03:52:35;;;;;;;10.67;5.63;;;17.20;99.90;;;;;;4930728;28;20203;-87
2022/09/06 03:55:02;;;;;;;8.47;5.33;;;17.20;99.90;;;;;;4949435;28;20345;-86
2022/09/06 03:57:27;;;;;;;6.20;4.80;;;17.20;99.90;;;;;;4944126;28;20195;-85
2022/09/06 03:59:53;;;;;;;6.50;5.23;;;16.90;99.90;;;;;;4940221;28;20443;-86
2022/09/06 04:02:20;;;;;;;6.00;5.40;;;17.10;99.90;;;;;;4937527;28;20208;-86
2022/09/06 04:04:46;;;;;;;8.60;4.90;;;;;;;;;;4951117;28;20192;-87
2022/09/06 04:07:11;;;;;;;7.60;5.53;;;17.00;99.90;;;;;;4973132;28;20681;-87
2022/09/06 04:09:37;;;;;;;9.13;6.10;;;18.60;99.90;;;;;;4959929;28;20454;-88
2022/09/06 04:12:03;;;;;;;8.90;6.70;;;17.20;99.90;;;;;;4935730;28;20222;-86
2022/09/06 04:14:29;;;;;;;9.60;5.20;;;17.10;99.90;;;;;;4935999;28;20188;-86
2022/09/06 04:16:54;;;;;;;5.97;5.37;;;17.00;99.90;;;;;;4942149;28;20533;-85
2022/09/06 04:19:20;;;;;;;16.03;6.00;;;17.00;99.90;;;;;;4934203;28;20186;-85
2022/09/06 04:21:45;;;;;;;10.43;4.87;;;16.90;99.90;;;;;;4937367;28;20180;-85
2022/09/06 04:24:11;;;;;;;7.70;5.67;;;;;;;;;;4964975;28;20364;-88
2022/09/06 04:26:37;;;;;;;5.63;5.03;;;16.80;99.90;;;;;;4943794;28;20215;-88
2022/09/06 04:29:03;;;;;;;9.83;5.47;;;16.80;99.90;;;;;;4956555;28;20463;-87
2022/09/06 04:31:28;;;;;;;6.60;5.93;;;16.60;99.90;;;;;;4949145;28;20180;-89
2022/09/06 04:33:54;;;;;;;8.27;6.13;;;16.70;99.90;;;;;;4936047;28;20203;-85
2022/09/06 04:36:19;;;;;;;6.63;5.40;;;16.60;99.90;;;;;;4945022;28;22034;-88
2022/09/06 04:38:45;;;;;;;8.43;5.70;;;16.60;99.90;;;;;;4946324;28;20270;-87
2022/09/06 04:41:14;;;;;;;7.17;6.47;;;16.50;99.90;;;;;;4950151;28;20196;-86
2022/09/06 04:43:40;;;;;;;8.87;7.20;;;19.20;99.90;;;;;;4952507;28;20951;-88
2022/09/06 04:46:26;;;;;;;8.73;6.27;;;19.30;99.90;;;;;;4937073;28;20586;-85
2022/09/06 04:48:53;;;;;;;8.23;7.30;;;16.40;99.90;;;;;;4948986;28;20497;-89
2022/09/06 04:51:19;;;;;;;10.10;6.60;;;;;;;;;;4928285;28;20443;-87
2022/09/06 04:53:45;;;;;;;9.90;7.20;;;16.40;99.90;;;;;;4930153;28;20498;-87
2022/09/06 04:56:17;;;;;;;8.03;6.43;;;16.30;99.90;;;;;;4947216;28;20538;-87
2022/09/06 04:58:44;;;;;;;13.30;6.60;;;16.40;99.90;;;;;;4927435;28;20458;-87
2022/09/06 05:01:09;;;;;;;10.67;6.47;;;16.60;99.90;;;;;;4934575;28;20448;-85
2022/09/06 05:03:35;;;;;;;10.13;5.30;;;16.30;99.90;;;;;;4938172;28;20830;-87
2022/09/06 05:06:12;;;;;;;9.23;5.90;;;16.40;99.90;;;;;;4939725;28;20195;-88
2022/09/06 05:08:38;;;;;;;6.17;5.57;;;16.50;99.90;;;;;;4942786;28;20183;-85
2022/09/06 05:11:05;;;;;;;6.20;5.60;;;16.60;99.90;;;;;;4922838;28;20454;-87
2022/09/06 05:13:31;;;;;;;8.50;5.97;;;16.50;99.90;;;;;;4944271;28;20525;-87
2022/09/06 05:16:00;;;;;;;8.03;5.70;;;16.30;99.90;;;;;;4927899;28;20439;-87
2022/09/06 05:18:26;;;;;;;7.53;5.80;;;16.30;99.90;;;;;;4953720;28;20242;-88
2022/09/06 05:20:52;;;;;;;13.23;6.23;;;;;;;;;;4948134;28;22168;-86
2022/09/06 05:23:20;;;;;;;9.90;5.67;;;16.50;99.90;;;;;;4942360;28;20631;-85
2022/09/06 05:25:46;;;;;;;7.17;5.77;;;16.60;99.90;;;;;;4946714;28;20501;-86
2022/09/06 05:28:11;;;;;;;6.80;5.40;;;16.80;99.90;;;;;;4945278;28;20475;-86
2022/09/06 05:30:37;;;;;;;7.10;5.43;;;17.00;99.90;;;;;;4931114;28;20186;-85
2022/09/06 05:33:02;;;;;;;6.50;5.53;;;17.20;99.90;;;;;;4920135;28;20214;-87
2022/09/06 05:35:28;;;;;;;8.90;5.77;;;17.70;99.90;;;;;;4920256;28;20207;-85
2022/09/06 05:37:53;;;;;;;6.40;5.23;;;18.40;99.90;;;;;;4920150;28;20191;-86
2022/09/06 05:40:19;;;;;;;5.87;4.73;;;19.10;99.90;;;;;;4925556;28;20194;-87
2022/09/06 05:42:44;;;;;;;7.10;6.40;;;19.90;99.90;;;;;;4918027;28;20207;-86
2022/09/06 05:45:10;;;;;;;15.33;6.50;;;20.10;99.90;;;;;;4937630;28;20648;-85
2022/09/06 05:47:35;;;;;;;6.20;5.60;;;19.70;99.90;;;;;;4943666;28;20219;-85
2022/09/06 05:50:02;;;;;;;8.57;5.27;;;19.40;99.90;;;;;;4922013;28;20183;-85
2022/09/06 05:52:28;;;;;;;6.20;5.33;;;19.30;99.90;;;;;;4925953;28;20204;-84
2022/09/06 05:54:53;;;;;;;6.13;5.10;;;19.20;99.90;;;;;;4940723;28;20448;-86
2022/09/06 05:57:19;;;;;;;5.63;4.37;;;19.30;99.90;;;;;;4933099;28;20438;-86
2022/09/06 05:59:44;;;;;;;8.43;5.30;;;19.30;99.90;;;;;;4936454;28;20329;-86
2022/09/06 06:02:10;;;;;;;6.90;5.70;;;19.10;99.90;;;;;;4972051;23;20310;-85
2022/09/06 06:04:36;;;;;;;7.53;5.40;;;;;;;;;;4939100;28;20203;-85
2022/09/06 06:07:01;;;;;;;6.47;5.17;;;19.00;99.90;;;;;;4959389;28;20239;-85
2022/09/06 06:09:27;;;;;;;8.83;5.43;;;19.10;99.90;;;;;;4937684;28;20512;-84
2022/09/06 06:11:52;;;;;;;7.23;5.47;;;19.10;99.90;;;;;;4960587;28;20206;-85
2022/09/06 06:14:18;;;;;;;7.43;5.87;;;19.40;99.90;;;;;;4962628;28;20836;-85
2022/09/06 06:16:43;;;;;;;10.10;6.33;;;19.50;99.90;;;;;;4963078;28;20191;-84
2022/09/06 06:19:09;;;;;;;11.30;5.77;;;19.60;99.90;;;;;;4961623;28;20191;-85
2022/09/06 06:21:36;;;;;;;11.83;6.03;;;19.80;99.90;;;;;;4945124;28;20207;-85
2022/09/06 06:24:03;;;;;;;7.53;6.07;;;20.00;99.90;;;;;;4942886;28;20274;-85
2022/09/06 06:26:34;;;;;;;8.27;4.83;;;20.00;99.90;;;;;;4938411;28;20562;-85
2022/09/06 06:29:04;;;;;;;8.30;5.50;;;20.10;99.90;;;;;;4956486;28;21172;-84
2022/09/06 06:31:31;;;;;;;6.00;5.10;;;20.20;99.90;;;;;;4942193;28;20564;-85
2022/09/06 06:33:58;;;;;;;6.63;5.40;;;20.40;99.90;;;;;;4943732;28;20466;-84
2022/09/06 06:36:25;;;;;;;10.00;6.00;;;20.60;99.90;;;;;;4949288;28;20426;-85
2022/09/06 06:38:54;;;;;;;7.43;4.83;;;20.70;99.90;;;;;;4964608;28;21894;-86
2022/09/06 06:41:22;;;;;;;8.63;4.47;;;20.80;99.90;;;;;;4945835;28;20450;-84
2022/09/06 06:43:50;;;;;;;6.97;5.50;;;21.00;99.90;;;;;;4947784;28;20450;-85
2022/09/06 06:46:17;;;;;;;7.30;5.20;;;21.10;99.90;;;;;;4970597;28;20543;-86
2022/09/06 06:48:45;;;;;;;7.33;5.17;;;21.00;99.90;;;;;;4974983;28;20453;-85
2022/09/06 06:51:12;;;;;;;9.53;4.97;;;20.70;99.90;;;;;;4969618;28;20454;-85
2022/09/06 06:53:38;;;;;;;6.17;4.87;;;20.80;99.90;;;;;;4975496;28;20465;-85
2022/09/06 06:56:18;;;;;;;9.33;4.60;;;20.60;99.90;;;;;;4975411;28;20534;-86
2022/09/06 06:58:44;;;;;;;5.37;4.87;;;20.60;99.90;;;;;;4956535;28;20190;-86
2022/09/06 07:01:10;;;;;;;7.60;4.07;;;20.50;99.90;;;;;;4952270;28;20460;-85
2022/09/06 07:03:36;;;;;;;5.87;5.20;;;20.70;99.90;;;;;;4972659;28;20445;-86
2022/09/06 07:06:03;;;;;;;6.10;4.33;;;21.00;99.90;;;;;;4957646;28;20438;-85
2022/09/06 07:08:28;;;;;;;5.07;4.57;;;21.00;99.90;;;;;;4969778;28;20187;-85
2022/09/06 07:10:55;;;;;;;7.40;4.40;;;22.40;99.90;;;;;;4949765;28;21919;-86
2022/09/06 07:13:20;;;;;;;9.33;4.70;;;22.50;99.90;;;;;;4948438;28;20218;-86
2022/09/06 07:15:46;;;;;;;8.30;4.30;;;24.10;99.90;;;;;;4949235;28;20529;-84
2022/09/06 07:18:15;;;;;;;7.50;6.10;;;25.90;99.90;;;;;;4975809;28;20222;-87
2022/09/06 07:20:40;;;;;;;5.50;4.30;;;26.60;99.90;;;;;;4974968;28;20240;-84
2022/09/06 07:23:06;;;;;;;5.53;3.80;;;26.70;99.90;;;;;;4971996;28;21057;-85
2022/09/06 07:25:32;;;;;;;5.03;4.30;;;25.40;99.90;;;;;;4951795;28;20184;-84
2022/09/06 07:27:57;;;;;;;9.13;4.47;;;24.20;99.90;;;;;;4969554;28;20207;-85
2022/09/06 07:30:23;;;;;;;5.73;4.60;;;23.90;99.90;;;;;;4939704;28;20537;-85
2022/09/06 07:32:49;;;;;;;5.60;4.20;;;23.80;99.90;;;;;;4942548;28;20195;-85
2022/09/06 07:35:14;;;;;;;5.70;4.80;;;23.70;99.90;;;;;;4961952;28;20924;-84
2022/09/06 07:37:40;;;;;;;8.33;4.40;;;23.10;99.90;;;;;;4961909;28;20412;-85
2022/09/06 07:40:06;;;;;;;7.17;5.03;;;22.70;99.90;;;;;;4964786;28;21228;-85
2022/09/06 07:42:34;;;;;;;6.37;4.77;;;22.90;99.90;;;;;;4970961;28;20293;-84
2022/09/06 07:45:00;;;;;;;4.93;4.50;;;23.10;99.90;;;;;;4965996;28;20532;-86
2022/09/06 07:47:26;;;;;;;5.97;5.17;;;24.40;99.90;;;;;;4964494;28;20466;-85
2022/09/06 07:49:51;;;;;;;4.87;4.33;;;25.50;99.90;;;;;;4970959;28;20239;-84
2022/09/06 07:52:17;;;;;;;5.23;4.83;;;27.00;99.90;;;;;;4966471;28;20809;-87
2022/09/06 07:54:43;;;;;;;5.97;4.30;;;28.20;99.90;;;;;;4965771;28;21005;-85
2022/09/06 07:57:09;;;;;;;8.73;5.50;;;29.50;99.90;;;;;;4948563;28;20184;-85
2022/09/06 07:59:35;;;;;;;5.60;3.97;;;31.00;99.90;;;;;;4967997;28;20186;-86
2022/09/06 08:02:00;;;;;;;4.67;4.27;;;32.80;99.90;;;;;;4967722;28;20467;-85
2022/09/06 08:04:26;;;;;;;5.20;4.33;;;33.70;96.30;;;;;;4954245;28;20977;-86
2022/09/06 08:06:52;;;;;;;8.57;4.90;;;34.70;93.70;;;;;;4953617;28;20634;-85
2022/09/06 08:09:18;;;;;;;4.77;4.37;;;34.90;91.50;;;;;;4969064;28;20186;-86
2022/09/06 08:11:43;;;;;;;5.30;4.80;;;34.50;90.60;;;;;;4953907;28;20461;-86
2022/09/06 08:14:09;;;;;;;9.37;5.50;;;34.70;86.30;;;;;;4974190;28;20184;-87
2022/09/06 08:16:37;;;;;;;5.63;5.03;;;35.50;84.40;;;;;;4973521;28;20179;-87
2022/09/06 08:19:07;;;;;;;5.77;4.97;;;35.50;85.10;;;;;;4978572;28;20443;-87
2022/09/06 08:21:33;;;;;;;7.70;4.97;;;36.00;79.30;;;;;;4979583;28;20478;-87
2022/09/06 08:24:04;;;;;;;6.83;5.00;;;33.30;81.20;;;;;;4976716;28;20443;-87
2022/09/06 08:26:32;;;;;;;7.30;5.30;;;33.80;84.20;;;;;;4979792;28;20505;-88
2022/09/06 08:29:04;;;;;;;7.67;5.30;;;33.90;88.00;;;;;;4983047;28;20432;-87
2022/09/06 08:31:32;;;;;;;6.00;5.40;;;34.70;80.00;;;;;;4968459;28;20494;-87
2022/09/06 08:33:58;;;;;;;6.33;5.50;;;34.90;80.70;;;;;;4965040;28;20446;-88
2022/09/06 08:36:30;;;;;;;13.23;5.97;;;35.60;81.10;;;;;;4966402;28;20552;-87
2022/09/06 08:39:00;;;;;;;6.37;5.27;;;35.70;77.80;;;;;;4984350;28;20494;-86
2022/09/06 08:41:31;;;;;;;5.40;4.90;;;34.70;78.70;;;;;;4955251;28;20487;-87
2022/09/06 08:44:04;;;;;;;8.83;6.20;;;35.90;78.30;;;;;;4982824;28;20818;-87
2022/09/06 08:46:39;;;;;;;22.73;6.90;;;35.50;74.10;;;;;;4982009;28;20464;-87
2022/09/06 08:49:05;;;;;;;6.67;6.13;;;34.00;77.20;;;;;;4981252;28;20473;-87
2022/09/06 08:52:03;;;;;;;6.23;5.67;;;35.20;81.30;;;;;;4978697;28;20474;-88
2022/09/06 08:54:52;;;;;;;6.37;5.73;;;34.50;74.60;;;;;;4982313;28;20817;-88
2022/09/06 08:57:44;;;;;;;6.87;6.10;;;33.40;77.40;;;;;;4958562;28;20453;-87
2022/09/06 09:00:12;;;;;;;7.00;5.93;;;31.00;82.50;;;;;;4980814;28;20439;-86
2022/09/06 09:02:50;;;;;;;7.27;5.17;;;29.30;90.30;;;;;;4960418;28;20470;-87
2022/09/06 09:05:29;;;;;;;7.57;5.67;;;28.40;92.60;;;;;;4977322;28;20446;-86
2022/09/06 09:08:12;;;;;;;7.43;5.00;;;29.10;95.80;;;;;;4958602;28;20475;-86
2022/09/06 09:10:45;;;;;;;8.37;4.53;;;31.00;93.40;;;;;;4980047;28;20486;-85
2022/09/06 09:13:30;;;;;;;7.80;5.17;;;30.80;91.10;;;;;;4974167;28;21107;-86
2022/09/06 09:15:56;;;;;;;9.23;4.80;;;30.70;91.20;;;;;;4966193;28;20435;-87
2022/09/06 09:18:26;;;;;;;7.73;5.13;;;32.80;89.00;;;;;;4975670;28;20435;-88
2022/09/06 09:20:52;;;;;;;6.87;5.00;;;33.30;85.20;;;;;;4975332;28;20186;-87
2022/09/06 09:23:18;;;;;;;9.13;5.63;;;;;;;;;;4965895;28;20494;-86
2022/09/06 09:25:45;;;;;;;7.83;5.70;;;;;;;;;;4978937;28;20196;-87
2022/09/06 09:28:22;;;;;;;8.93;5.63;;;33.40;83.30;;;;;;4979144;28;20473;-87
2022/09/06 09:30:50;;;;;;;7.53;5.67;;;32.30;81.70;;;;;;4952800;28;20442;-86
2022/09/06 09:33:26;;;;;;;6.13;5.53;;;32.30;82.50;;;;;;4978592;28;20430;-87
2022/09/06 09:35:53;;;;;;;8.43;4.70;;;29.90;90.70;;;;;;4977447;28;20538;-86
2022/09/06 09:38:41;;;;;;;5.07;4.57;;;29.80;91.00;;;;;;4966148;28;20442;-86
2022/09/06 09:41:07;;;;;;;10.77;5.40;;;29.90;92.30;;;;;;4978759;28;20443;-87
2022/09/06 09:43:41;;;;;;;6.00;4.40;;;29.80;92.50;;;;;;4984875;28;20835;-87
2022/09/06 09:46:14;;;;;;;6.93;4.43;;;30.10;93.00;;;;;;4983316;28;21052;-86
2022/09/06 09:49:01;;;;;;;10.03;3.83;;;30.80;91.40;;;;;;4985442;28;20439;-87
2022/09/06 09:51:27;;;;;;;7.90;4.60;;;32.40;90.60;;;;;;4985224;28;20464;-86
2022/09/06 09:53:55;;;;;;;5.90;5.10;;;34.10;82.70;;;;;;4968538;28;20441;-86
2022/09/06 09:56:45;;;;;;;7.23;5.23;;;34.90;77.00;;;;;;4987514;28;20456;-86
2022/09/06 09:59:21;;;;;;;7.13;5.60;;;34.70;77.70;;;;;;4955663;28;21153;-85
2022/09/06 10:01:47;;;;;;;5.97;5.37;;;;;;;;;;4986365;28;20564;-87
2022/09/06 10:04:23;;;;;;;5.77;5.17;;;34.80;75.70;;;;;;4985043;28;20446;-86
2022/09/06 10:06:48;;;;;;;7.60;5.93;;;33.70;75.00;;;;;;4983841;28;20467;-88
2022/09/06 10:09:19;;;;;;;6.00;4.97;;;31.50;78.30;;;;;;4986450;28;20444;-88
2022/09/06 10:11:55;;;;;;;6.90;4.20;;;30.10;89.20;;;;;;4975418;28;20245;-85
2022/09/06 10:14:38;;;;;;;7.40;3.93;;;29.10;92.40;;;;;;4978981;28;20441;-85
2022/09/06 10:17:04;;;;;;;4.43;3.93;;;29.60;91.80;;;;;;4976918;28;20533;-87
2022/09/06 10:19:40;;;;;;;5.60;4.30;;;28.80;92.40;;;;;;4978588;28;20456;-86
2022/09/06 10:22:27;;;;;;;4.20;3.60;;;28.20;94.40;;;;;;4974900;28;20200;-84
2022/09/06 10:25:22;;;;;;;7.40;4.40;;;28.50;95.50;;;;;;4984388;28;20946;-87
2022/09/06 10:28:08;;;;;;;6.00;4.20;;;28.80;95.70;;;;;;4978433;28;20482;-86
2022/09/06 10:30:45;;;;;;;7.03;3.60;;;28.10;95.90;;;;;;4978325;28;20439;-86
2022/09/06 10:33:45;;;;;;;5.13;3.20;;;28.00;97.00;;;;;;4975171;28;20465;-86
2022/09/06 10:36:17;;;;;;;4.13;3.73;;;28.10;97.70;;;;;;4962256;28;20438;-85
2022/09/06 10:38:52;;;;;;;10.53;3.90;;;27.80;98.10;;;;;;4980075;28;20438;-85
2022/09/06 10:41:33;;;;;;;5.70;3.70;;;28.00;97.50;;;;;;4978939;28;20464;-86
2022/09/06 10:44:18;;;;;;;4.40;4.00;;;28.50;99.10;;;;;;4980768;28;21202;-86
2022/09/06 10:46:45;;;;;;;9.60;3.67;;;28.90;99.10;;;;;;4980861;28;20471;-85
2022/09/06 10:49:16;;;;;;;8.10;3.50;;;28.80;98.60;;;;;;4974453;28;20430;-84
2022/09/06 10:51:48;;;;;;;6.57;4.00;;;28.80;99.00;;;;;;4974572;28;20457;-86
2022/09/06 10:54:22;;;;;;;5.57;3.10;;;28.20;98.40;;;;;;4981005;28;21078;-87
2022/09/06 10:57:12;;;;;;;7.57;3.40;;;27.70;99.30;;;;;;4980877;28;20433;-85
2022/09/06 10:59:50;;;;;;;8.70;4.20;;;28.00;99.90;;;;;;4979680;28;21048;-87
2022/09/06 11:02:54;;;;;;;6.03;3.57;;;28.30;99.90;;;;;;4979534;28;20461;-85
2022/09/06 11:05:29;;;;;;;10.53;4.37;;;28.60;98.50;;;;;;4980306;28;20443;-86
2022/09/06 11:08:11;;;;;;;8.13;4.83;;;29.00;99.80;;;;;;4981761;28;20528;-85
2022/09/06 11:10:42;;;;;;;8.37;4.50;;;29.20;98.20;;;;;;4981204;28;20515;-85
2022/09/06 11:13:19;;;;;;;6.80;4.10;;;28.80;97.40;;;;;;4981155;28;20455;-86
2022/09/06 11:15:44;;;;;;;8.40;3.67;;;28.40;98.30;;;;;;4980926;28;21174;-85
2022/09/06 11:18:35;;;;;;;5.27;3.33;;;28.40;99.10;;;;;;4979587;28;20445;-87
2022/09/06 11:21:22;;;;;;;9.97;3.73;;;28.20;99.90;;;;;;4977807;28;20191;-86
2022/09/06 11:23:56;;;;;;;8.60;4.33;;;28.20;99.90;;;;;;4980833;28;20973;-85
2022/09/06 11:27:08;;;;;;;10.93;4.43;;;28.60;99.70;;;;;;4983003;28;21279;-86
2022/09/06 11:29:38;;;;;;;16.47;4.97;;;28.40;99.90;;;;;;4898928;29;20435;-86
2022/09/06 11:32:32;;;;;;;4.80;3.73;;;28.20;99.90;;;;;;4978232;28;20470;-85
2022/09/06 11:35:01;;;;;;;7.73;4.90;;;28.00;99.90;;;;;;4977058;28;20531;-85
2022/09/06 11:37:33;;;;;;;11.30;4.13;;;28.00;99.90;;;;;;4973238;28;20446;-85
2022/09/06 11:40:08;;;;;;;8.87;4.17;;;28.30;99.90;;;;;;4976053;28;20454;-85
2022/09/06 11:42:46;;;;;;;4.87;4.00;;;28.50;99.90;;;;;;4976616;28;23158;-86
2022/09/06 11:45:37;;;;;;;9.60;4.00;;;28.40;99.40;;;;;;4979079;28;20430;-85
2022/09/06 11:48:33;;;;;;;10.47;4.47;;;28.00;99.90;;;;;;4985477;28;20475;-85
2022/09/06 11:50:58;;;;;;;6.10;3.60;;;28.10;99.90;;;;;;4959932;28;20441;-86
2022/09/06 11:53:26;;;;;;;8.20;4.07;;;28.10;99.90;;;;;;4975977;28;20810;-84
2022/09/06 11:56:01;;;;;;;4.93;3.00;;;28.40;99.30;;;;;;4978205;28;20185;-86
2022/09/06 11:58:38;;;;;;;16.60;3.80;;;28.80;96.30;;;;;;4972892;28;20441;-86
2022/09/06 12:01:17;;;;;;;8.60;3.70;;;28.90;98.10;;;;;;4962355;28;20452;-86
2022/09/06 12:03:52;;;;;;;6.40;3.17;;;28.90;98.20;;;;;;4958095;28;20447;-86
2022/09/06 12:06:34;;;;;;;7.10;2.90;;;29.10;97.20;;;;;;4983529;28;20487;-85
2022/09/06 12:09:01;;;;;;;6.57;3.73;;;29.10;95.90;;;;;;4983245;28;22201;-85
2022/09/06 12:11:47;;;;;;;8.27;3.33;;;29.10;96.10;;;;;;4983135;28;20447;-86
2022/09/06 12:14:28;;;;;;;10.77;3.93;;;28.60;96.20;;;;;;4965737;28;20466;-86
2022/09/06 12:16:56;;;;;;;6.93;3.70;;;28.60;95.50;;;;;;4955231;28;21255;-85
2022/09/06 12:19:49;;;;;;;6.57;3.53;;;28.80;95.20;;;;;;4955492;28;20478;-86
2022/09/06 12:22:28;;;;;;;8.50;3.47;;;28.80;94.90;;;;;;4975633;28;20463;-86
2022/09/06 12:24:59;;;;;;;6.50;3.13;;;28.80;95.50;;;;;;4978075;28;20448;-86
2022/09/06 12:27:49;;;;;;;3.60;3.30;;;28.90;96.20;;;;;;4975680;28;20472;-87
2022/09/06 12:30:40;;;;;;;5.13;3.20;;;29.00;94.80;;;;;;4975186;28;20937;-85
2022/09/06 12:33:28;;;;;;;7.77;3.80;;;29.30;94.70;;;;;;4976716;28;20993;-86
2022/09/06 12:36:12;;;;;;;4.27;3.03;;;29.30;93.40;;;;;;4978193;28;21076;-86
2022/09/06 12:38:38;;;;;;;11.17;2.80;;;28.90;94.30;;;;;;4984561;28;21041;-87
2022/09/06 12:41:04;;;;;;;3.83;3.07;;;29.20;94.70;;;;;;4969531;28;20447;-85
2022/09/06 12:43:34;;;;;;;3.63;3.30;;;29.20;94.60;;;;;;4977190;28;20179;-86
2022/09/06 12:46:01;;;;;;;7.97;3.30;;;29.60;93.10;;;;;;4980914;28;20647;-85
2022/09/06 12:48:29;;;;;;;6.40;2.90;;;29.50;92.30;;;;;;4971084;28;20470;-87
2022/09/06 12:51:06;;;;;;;18.40;3.33;;;29.70;91.30;;;;;;4962402;28;20438;-85
2022/09/06 12:53:33;;;;;;;7.17;3.40;;;29.70;91.20;;;;;;4971759;28;20437;-85
2022/09/06 12:56:13;;;;;;;5.47;3.60;;;30.20;91.20;;;;;;4982939;28;20434;-86
2022/09/06 12:58:38;;;;;;;4.57;3.33;;;30.30;90.50;;;;;;4976771;28;20511;-85
2022/09/06 13:01:34;;;;;;;6.47;3.30;;;30.50;85.70;;;;;;4964457;28;22031;-85
2022/09/06 13:04:10;;;;;;;9.00;4.40;;;30.60;87.30;;;;;;4965261;28;20207;-86
2022/09/06 13:06:41;;;;;;;14.83;3.37;;;30.60;86.50;;;;;;4978219;28;21107;-88
2022/09/06 13:09:13;;;;;;;7.17;3.47;;;30.40;86.30;;;;;;5000974;23;20480;-88
2022/09/06 13:11:42;;;;;;;7.00;3.37;;;30.50;87.10;;;;;;4995443;28;21222;-86